CYRT

Rankin Inlet Airport

Rankin Inlet, Canada
METAR CYRT 251600Z 02010G16KT 30SM BKN022 00/M05 A2984 RMK SC7 SLP110
Observed Flight Rules
Sep-25 @ 16:00 UTC (an hour ago) Marginal Visual Flight Rules
Wind Visibility Clouds
20° at 10 knots
 Gusting to 16 knots
30 miles
  • Broken at 2,200' AGL
Temperatures Readings
Current 0°C / 32°F
Dewpoint -5°C / 23°F
Humidity 69%
Altimeter 29.84" Hg
Pressure 1011 hPa
Elevation 32
METAR CYRT 251600Z 02010G16KT 30SM BKN022 00/M05 A2984 RMK SC7 SLP110
Observed Flight Rules
Sep-25 @ 16:00 UTC
(an hour ago)
MVFR
Wind Visibility
20° at 10 knots
 Gusting to 16 knots
30 miles
Clouds
  • Broken at 2,200' AGL
Temperature Dewpoint
0°C / 32°F -5°C / 23°F
Humidity Altimeter Pressure
69% 29.84" Hg 1011 hPa